Time;durP1;ratioP1;P1;durP2;ratioP2;P2;SDS_P1;SDS_P2;PMS_P1;PMS_P2;Temp;Humidity;BMP_temperature;BMP_pressure;BME280_temperature;BME280_humidity;BME280_pressure;Samples;Min_cycle;Max_cycle;Signal;HPM_P1;HPM_P2
2022/11/18 00:01:11;;;;;;;1999.90;999.90;;;9.80;99.90;;;;;;5035013;28;20423;-66
2022/11/18 00:03:37;;;;;;;1999.90;999.90;;;9.70;99.90;;;;;;5041047;28;20473;-67
2022/11/18 00:06:04;;;;;;;1999.90;999.90;;;9.60;99.90;;;;;;5037135;28;20502;-67
2022/11/18 00:08:30;;;;;;;1999.90;999.90;;;9.60;99.90;;;;;;5039929;28;20453;-67
2022/11/18 00:10:56;;;;;;;1999.90;999.90;;;9.50;99.90;;;;;;5039698;28;20414;-67
2022/11/18 00:16:08;;;;;;;1999.90;999.90;;;9.60;99.90;;;;;;5043309;28;20218;-67
2022/11/18 00:18:34;;;;;;;1999.90;999.90;;;9.60;99.90;;;;;;5046263;28;20421;-67
2022/11/18 00:21:05;;;;;;;1999.90;999.90;;;9.60;99.90;;;;;;5035254;28;20420;-67
2022/11/18 00:23:30;;;;;;;1999.90;999.90;;;9.70;99.90;;;;;;5033305;28;20489;-67
2022/11/18 00:26:05;;;;;;;1999.90;999.90;;;9.70;99.90;;;;;;5032904;28;20835;-67
2022/11/18 00:28:31;;;;;;;1999.90;999.90;;;9.70;99.90;;;;;;5033445;28;20165;-67
2022/11/18 00:31:09;;;;;;;1999.90;999.90;;;9.70;99.90;;;;;;5033525;28;20403;-67
2022/11/18 00:33:37;;;;;;;1999.90;999.90;;;9.80;99.90;;;;;;5033384;28;20922;-66
2022/11/18 00:36:05;;;;;;;1999.90;999.90;;;9.80;99.90;;;;;;5033079;28;20826;-66
2022/11/18 00:38:30;;;;;;;1999.90;999.90;;;9.80;99.90;;;;;;5032994;28;20411;-66
2022/11/18 00:41:11;;;;;;;1999.90;999.90;;;9.90;99.90;;;;;;5033272;28;20421;-67
2022/11/18 00:43:37;;;;;;;1999.90;999.90;;;9.90;99.90;;;;;;5033155;28;20836;-67
2022/11/18 00:46:04;;;;;;;1999.90;999.90;;;9.80;99.90;;;;;;5032851;28;20441;-66
2022/11/18 00:48:30;;;;;;;1999.90;999.90;;;9.80;99.90;;;;;;5032889;28;20409;-66
2022/11/18 00:50:58;;;;;;;1999.90;999.90;;;9.80;99.90;;;;;;5032995;28;20411;-66
2022/11/18 00:53:25;;;;;;;1999.90;999.90;;;9.80;99.90;;;;;;5032950;28;20194;-66
2022/11/18 00:55:51;;;;;;;1999.90;999.90;;;9.80;99.90;;;;;;5032711;28;20508;-66
2022/11/18 00:58:17;;;;;;;1999.90;999.90;;;10.00;99.90;;;;;;5032670;28;20493;-66
2022/11/18 01:00:45;;;;;;;1999.90;999.90;;;9.90;99.90;;;;;;5032795;28;20410;-67
2022/11/18 01:03:11;;;;;;;1999.90;999.90;;;9.90;99.90;;;;;;5036990;28;20437;-66
2022/11/18 01:05:38;;;;;;;1999.90;999.90;;;9.90;99.90;;;;;;5051154;28;20546;-67
2022/11/18 01:08:06;;;;;;;1999.90;999.90;;;9.90;99.90;;;;;;5051575;28;20402;-66
2022/11/18 01:10:33;;;;;;;1999.90;999.90;;;9.90;99.90;;;;;;5046393;28;20432;-67
2022/11/18 01:15:54;;;;;;;1999.90;999.90;;;10.10;99.90;;;;;;5032413;28;20429;-66
2022/11/18 01:18:23;;;;;;;1999.90;999.90;;;10.10;99.90;;;;;;5032275;28;20903;-66
2022/11/18 01:20:49;;;;;;;1999.90;999.90;;;10.10;99.90;;;;;;5032345;28;20401;-66
2022/11/18 01:23:16;;;;;;;1999.90;999.90;;;10.10;99.90;;;;;;5032332;28;20464;-66
2022/11/18 01:25:44;;;;;;;1999.90;999.90;;;10.10;99.90;;;;;;5032201;28;20430;-67
2022/11/18 01:28:11;;;;;;;1999.90;999.90;;;10.00;99.90;;;;;;5031943;28;20407;-67
2022/11/18 01:30:39;;;;;;;1999.90;999.90;;;10.10;99.90;;;;;;5037084;28;20410;-67
2022/11/18 01:33:05;;;;;;;1999.90;999.90;;;10.10;99.90;;;;;;5032257;28;20915;-66
2022/11/18 01:35:39;;;;;;;1999.90;999.90;;;10.10;99.90;;;;;;5044955;28;20460;-66
2022/11/18 01:38:05;;;;;;;1999.90;999.90;;;10.10;99.90;;;;;;5039721;28;20419;-67
2022/11/18 01:40:31;;;;;;;1999.90;999.90;;;10.20;99.90;;;;;;5032058;28;20414;-67
2022/11/18 01:42:57;;;;;;;1999.90;999.90;;;10.20;99.90;;;;;;5032012;28;20509;-66
2022/11/18 01:45:40;;;;;;;1999.90;999.90;;;10.20;99.90;;;;;;5031933;28;20423;-66
2022/11/18 01:48:14;;;;;;;1999.90;999.90;;;10.10;99.90;;;;;;5031844;28;20410;-66
2022/11/18 01:50:57;;;;;;;1999.90;999.90;;;10.10;99.90;;;;;;5031981;28;20911;-66
2022/11/18 01:53:27;;;;;;;1999.90;999.90;;;10.10;99.90;;;;;;5032233;28;20786;-66
2022/11/18 01:55:56;;;;;;;1999.90;999.90;;;10.10;99.90;;;;;;5033375;28;20539;-67
2022/11/18 01:58:53;;;;;;;1999.90;999.90;;;10.10;99.90;;;;;;5035394;28;20420;-67
2022/11/18 02:01:19;;;;;;;1999.90;999.90;;;10.10;99.90;;;;;;5035720;28;20448;-67
2022/11/18 02:03:47;;;;;;;1999.90;999.90;;;10.10;99.90;;;;;;5035633;28;20458;-66
2022/11/18 02:06:12;;;;;;;1999.90;999.90;;;10.10;99.90;;;;;;5031751;28;20191;-66
2022/11/18 02:08:39;;;;;;;1999.90;999.90;;;10.00;99.90;;;;;;5031620;28;20505;-66
2022/11/18 02:11:49;;;;;;;1999.90;999.90;;;10.00;99.90;;;;;;5031849;28;20285;-66
2022/11/18 02:13:56;;;;;;;1999.90;999.90;;;10.00;99.90;;;;;;5031613;28;20422;-66
2022/11/18 02:16:36;;;;;;;1999.90;999.90;;;10.00;99.90;;;;;;5031632;28;20427;-66
2022/11/18 02:19:13;;;;;;;1999.90;999.90;;;10.00;99.90;;;;;;5031658;28;20412;-66
2022/11/18 02:22:04;;;;;;;1999.90;999.90;;;10.00;99.90;;;;;;5031751;28;20413;-66
2022/11/18 02:24:48;;;;;;;1999.90;999.90;;;9.90;99.90;;;;;;5036823;28;20466;-67
2022/11/18 02:27:42;;;;;;;1999.90;999.90;;;9.90;99.90;;;;;;5043759;28;20429;-67
2022/11/18 02:30:10;;;;;;;1999.90;999.90;;;9.80;99.90;;;;;;5045820;28;20506;-67
2022/11/18 02:32:46;;;;;;;1999.90;999.90;;;9.80;99.90;;;;;;5033542;28;20422;-67
2022/11/18 02:35:20;;;;;;;1999.90;999.90;;;9.70;99.90;;;;;;5031399;28;20887;-66
2022/11/18 02:37:48;;;;;;;1999.90;999.90;;;9.70;99.90;;;;;;5033905;28;20434;-67
2022/11/18 02:40:35;;;;;;;1999.90;999.90;;;9.60;99.90;;;;;;5032359;28;20817;-66
2022/11/18 02:43:08;;;;;;;1999.90;999.90;;;9.70;99.90;;;;;;5031612;28;20464;-66
2022/11/18 02:45:35;;;;;;;1999.90;999.90;;;9.80;99.90;;;;;;5031398;28;20425;-66
2022/11/18 02:48:06;;;;;;;1999.90;999.90;;;9.80;99.90;;;;;;5031796;28;20426;-67
2022/11/18 02:50:33;;;;;;;1999.90;999.90;;;9.80;99.90;;;;;;5040743;28;20406;-67
2022/11/18 02:53:02;;;;;;;1999.90;999.90;;;9.70;99.90;;;;;;5037871;28;20591;-67
2022/11/18 02:55:30;;;;;;;1999.90;999.90;;;9.70;99.90;;;;;;5039408;28;20433;-67
2022/11/18 02:57:57;;;;;;;1999.90;999.90;;;9.70;99.90;;;;;;5038367;28;20502;-67
2022/11/18 03:00:23;;;;;;;1999.90;999.90;;;9.70;99.90;;;;;;5038786;28;20417;-67
2022/11/18 03:02:49;;;;;;;1999.90;999.90;;;9.70;99.90;;;;;;5038820;28;20443;-67
2022/11/18 03:05:29;;;;;;;1999.90;999.90;;;9.70;99.90;;;;;;5038718;28;20277;-67
2022/11/18 03:08:02;;;;;;;1999.90;999.90;;;9.70;99.90;;;;;;5038603;28;20403;-67
2022/11/18 03:10:35;;;;;;;1999.90;999.90;;;9.80;99.90;;;;;;5038692;28;20438;-67
2022/11/18 03:13:33;;;;;;;1999.90;999.90;;;9.80;99.90;;;;;;5038552;28;20460;-67
2022/11/18 03:16:08;;;;;;;1999.90;999.90;;;9.80;99.90;;;;;;5030430;28;20449;-67
2022/11/18 03:18:49;;;;;;;1999.90;999.90;;;9.90;99.90;;;;;;5038162;28;20417;-67
2022/11/18 03:21:39;;;;;;;1999.90;999.90;;;9.90;99.90;;;;;;5038313;28;20476;-67
2022/11/18 03:24:10;;;;;;;1999.90;999.90;;;9.90;99.90;;;;;;5037692;28;20484;-67
2022/11/18 03:26:42;;;;;;;1999.90;999.90;;;9.90;99.90;;;;;;5037590;28;21044;-67
2022/11/18 03:29:16;;;;;;;1999.90;999.90;;;9.90;99.90;;;;;;5037911;28;20421;-67
2022/11/18 03:31:50;;;;;;;1999.90;999.90;;;9.90;99.90;;;;;;5038473;28;20441;-67
2022/11/18 03:34:29;;;;;;;1999.90;999.90;;;9.90;99.90;;;;;;5038869;28;20467;-67
2022/11/18 03:37:02;;;;;;;1999.90;999.90;;;9.90;99.90;;;;;;5038646;28;20486;-67
2022/11/18 03:39:30;;;;;;;1999.90;999.90;;;9.90;99.90;;;;;;5038896;28;20414;-67
2022/11/18 03:42:32;;;;;;;1999.90;999.90;;;9.90;99.90;;;;;;5038590;28;20406;-67
2022/11/18 03:45:24;;;;;;;1999.90;999.90;;;10.00;99.90;;;;;;5036142;28;20430;-67
2022/11/18 03:47:57;;;;;;;1999.90;999.90;;;10.00;99.90;;;;;;5037953;28;20415;-67
2022/11/18 03:50:28;;;;;;;1999.90;999.90;;;10.00;99.90;;;;;;5037342;28;20924;-66
2022/11/18 03:52:55;;;;;;;1999.90;999.90;;;10.00;99.90;;;;;;5034048;28;20401;-66
2022/11/18 03:55:26;;;;;;;1999.90;999.90;;;10.00;99.90;;;;;;5043800;28;20445;-67
2022/11/18 03:58:14;;;;;;;1999.90;999.90;;;10.00;99.90;;;;;;5042138;28;20446;-67
2022/11/18 04:00:43;;;;;;;1999.90;999.90;;;9.90;99.90;;;;;;5033054;28;21020;-66
2022/11/18 04:03:10;;;;;;;1999.90;999.90;;;10.00;99.90;;;;;;5033727;28;20450;-66
2022/11/18 04:05:39;;;;;;;1999.90;999.90;;;10.00;99.90;;;;;;5033717;28;20422;-67
2022/11/18 04:08:16;;;;;;;1999.90;999.90;;;10.00;99.90;;;;;;5037305;28;20413;-68
2022/11/18 04:10:49;;;;;;;1999.90;999.90;;;10.00;99.90;;;;;;5047849;28;20772;-67
2022/11/18 04:13:24;;;;;;;1999.90;999.90;;;10.00;99.90;;;;;;5048075;28;20398;-67
2022/11/18 04:15:50;;;;;;;1999.90;999.90;;;10.00;99.90;;;;;;5048033;28;20433;-66
2022/11/18 04:18:16;;;;;;;1999.90;999.90;;;10.00;99.90;;;;;;5047827;28;20414;-67
2022/11/18 04:20:42;;;;;;;1999.90;999.90;;;10.00;99.90;;;;;;5045815;28;21068;-66
2022/11/18 04:23:08;;;;;;;1999.90;999.90;;;10.00;99.90;;;;;;5033870;28;20484;-67
2022/11/18 04:25:34;;;;;;;1999.90;999.90;;;10.00;99.90;;;;;;5036012;28;20670;-67
2022/11/18 04:27:59;;;;;;;1999.90;999.90;;;10.00;99.90;;;;;;5033106;28;20694;-67
2022/11/18 04:30:25;;;;;;;1999.90;999.90;;;10.00;99.90;;;;;;5033325;28;20402;-67
2022/11/18 04:32:51;;;;;;;1999.90;999.90;;;10.00;99.90;;;;;;5036418;28;20220;-67
2022/11/18 04:35:16;;;;;;;1999.90;999.90;;;10.00;99.90;;;;;;5037405;28;20449;-67
2022/11/18 04:37:42;;;;;;;1999.90;999.90;;;9.90;99.90;;;;;;5036891;28;20263;-67
2022/11/18 04:40:08;;;;;;;1999.90;999.90;;;10.00;99.90;;;;;;5037626;28;20167;-67
2022/11/18 04:42:34;;;;;;;1999.90;999.90;;;10.00;99.90;;;;;;5036850;28;20194;-67
2022/11/18 04:44:59;;;;;;;1999.90;999.90;;;9.90;99.90;;;;;;5037179;28;20816;-67
2022/11/18 04:47:25;;;;;;;1999.90;999.90;;;9.90;99.90;;;;;;5037074;28;20168;-67
2022/11/18 04:49:51;;;;;;;1999.90;999.90;;;9.90;99.90;;;;;;5037584;28;20164;-67
2022/11/18 04:52:16;;;;;;;1999.90;999.90;;;9.90;99.90;;;;;;5036763;28;20171;-67
2022/11/18 04:54:42;;;;;;;1999.90;999.90;;;9.90;99.90;;;;;;5037029;28;20597;-67
2022/11/18 04:57:08;;;;;;;1999.90;999.90;;;9.90;99.90;;;;;;5036820;28;20301;-67
2022/11/18 04:59:34;;;;;;;1999.90;999.90;;;10.00;99.90;;;;;;5038017;28;20203;-67
2022/11/18 05:02:02;;;;;;;1999.90;999.90;;;10.00;99.90;;;;;;5037060;28;20407;-67
2022/11/18 05:04:30;;;;;;;1999.90;999.90;;;10.00;99.90;;;;;;5036159;28;20203;-66
2022/11/18 05:06:57;;;;;;;1999.90;999.90;;;10.00;99.90;;;;;;5035903;28;20953;-67
2022/11/18 05:09:23;;;;;;;1999.90;999.90;;;10.00;99.90;;;;;;5036827;28;20438;-67
2022/11/18 05:14:33;;;;;;;1999.90;999.90;;;9.90;99.90;;;;;;5036691;28;20492;-67
2022/11/18 05:16:59;;;;;;;1999.90;999.90;;;10.00;99.90;;;;;;5037046;28;20822;-67
2022/11/18 05:19:25;;;;;;;1999.90;999.90;;;10.00;99.90;;;;;;5049108;28;20206;-68
2022/11/18 05:21:51;;;;;;;1999.90;999.90;;;9.90;99.90;;;;;;5037037;28;20942;-67
2022/11/18 05:24:17;;;;;;;1999.90;999.90;;;10.00;99.90;;;;;;5036781;28;20204;-67
2022/11/18 05:26:43;;;;;;;1999.90;999.90;;;10.00;99.90;;;;;;5036257;28;20495;-67
2022/11/18 05:29:09;;;;;;;1999.90;999.90;;;10.00;99.90;;;;;;5045664;28;20413;-67
2022/11/18 05:31:34;;;;;;;1999.90;999.90;;;10.00;99.90;;;;;;5048273;28;20405;-67
2022/11/18 05:34:00;;;;;;;1999.90;999.90;;;10.10;99.90;;;;;;5049945;28;20407;-66
2022/11/18 05:36:26;;;;;;;1999.90;999.90;;;10.00;99.90;;;;;;5049393;28;20231;-67
2022/11/18 05:38:52;;;;;;;1999.90;999.90;;;10.00;99.90;;;;;;5046982;28;20180;-68
2022/11/18 05:44:03;;;;;;;1999.90;999.90;;;9.90;99.90;;;;;;5047534;28;20225;-68
2022/11/18 05:46:29;;;;;;;1999.90;999.90;;;9.80;99.90;;;;;;5047992;28;20441;-66
2022/11/18 05:48:55;;;;;;;1999.90;999.90;;;9.80;99.90;;;;;;5042574;28;20402;-66
2022/11/18 05:51:21;;;;;;;1999.90;999.90;;;9.90;99.90;;;;;;5049673;28;20467;-66
2022/11/18 05:53:49;;;;;;;1999.90;999.90;;;9.90;99.90;;;;;;5049808;28;20178;-66
2022/11/18 05:56:24;;;;;;;1999.90;999.90;;;9.80;99.90;;;;;;5048020;28;20514;-66
2022/11/18 05:58:49;;;;;;;1999.90;999.90;;;9.80;99.90;;;;;;5049332;28;20421;-66
2022/11/18 06:01:28;;;;;;;1999.90;999.90;;;9.80;99.90;;;;;;5036248;28;20409;-67
2022/11/18 06:03:54;;;;;;;1999.90;999.90;;;9.80;99.90;;;;;;5031902;28;20289;-67
2022/11/18 06:06:22;;;;;;;1999.90;999.90;;;9.70;99.90;;;;;;5031650;28;20449;-66
2022/11/18 06:09:00;;;;;;;1999.90;999.90;;;9.80;99.90;;;;;;5031425;28;20192;-66
2022/11/18 06:11:27;;;;;;;1999.90;999.90;;;9.80;99.90;;;;;;5031859;28;20429;-66
2022/11/18 06:14:02;;;;;;;1999.90;999.90;;;9.90;99.90;;;;;;5031754;28;20494;-66
2022/11/18 06:16:31;;;;;;;1999.90;999.90;;;9.90;99.90;;;;;;5031636;28;20472;-66
2022/11/18 06:18:57;;;;;;;1999.90;999.90;;;9.90;99.90;;;;;;5031571;28;20405;-66
2022/11/18 06:21:23;;;;;;;1999.90;999.90;;;9.90;99.90;;;;;;5031741;28;20767;-67
2022/11/18 06:23:49;;;;;;;1999.90;999.90;;;10.00;99.90;;;;;;5033567;28;20446;-67
2022/11/18 06:26:15;;;;;;;1999.90;999.90;;;10.10;99.90;;;;;;5035498;28;20191;-66
2022/11/18 06:28:44;;;;;;;1999.90;999.90;;;10.10;99.90;;;;;;5035476;28;20494;-67
2022/11/18 06:31:10;;;;;;;1999.90;999.90;;;10.10;99.90;;;;;;5035554;28;20779;-66
2022/11/18 06:33:36;;;;;;;1999.90;999.90;;;10.10;99.90;;;;;;5035545;28;20406;-66
2022/11/18 06:36:01;;;;;;;1999.90;999.90;;;10.10;99.90;;;;;;5035154;28;20202;-67
2022/11/18 06:38:27;;;;;;;1999.90;999.90;;;10.10;99.90;;;;;;5035288;28;20258;-66
2022/11/18 06:40:57;;;;;;;1999.90;999.90;;;10.00;99.90;;;;;;5035444;28;20223;-66
2022/11/18 06:43:37;;;;;;;1999.90;999.90;;;10.00;99.90;;;;;;5035228;28;20525;-67
2022/11/18 06:48:49;;;;;;;1999.90;999.90;;;10.00;99.90;;;;;;5035382;28;20411;-67
2022/11/18 06:51:15;;;;;;;1999.90;999.90;;;10.00;99.90;;;;;;5035167;28;20485;-67
2022/11/18 06:53:41;;;;;;;1999.90;999.90;;;10.00;99.90;;;;;;5044009;28;20908;-67
2022/11/18 06:56:09;;;;;;;1999.90;999.90;;;9.90;99.90;;;;;;5052960;28;20437;-67
2022/11/18 06:58:35;;;;;;;1999.90;999.90;;;10.00;99.90;;;;;;5053396;28;20415;-67
2022/11/18 07:01:16;;;;;;;1999.90;999.90;;;10.00;99.90;;;;;;5053536;28;20422;-67
2022/11/18 07:03:44;;;;;;;1999.90;999.90;;;9.90;99.90;;;;;;5053470;28;20213;-67
2022/11/18 07:06:11;;;;;;;1999.90;999.90;;;10.00;99.90;;;;;;5053959;28;20427;-67
2022/11/18 07:08:38;;;;;;;1999.90;999.90;;;9.90;99.90;;;;;;5053725;28;20757;-66
2022/11/18 07:11:06;;;;;;;1999.90;999.90;;;9.90;99.90;;;;;;5053724;28;20432;-67
2022/11/18 07:13:33;;;;;;;1999.90;999.90;;;9.80;99.90;;;;;;5053935;28;20498;-68
2022/11/18 07:16:10;;;;;;;1999.90;999.90;;;9.80;99.90;;;;;;5052943;28;20473;-67
2022/11/18 07:18:38;;;;;;;1999.90;999.90;;;9.80;99.90;;;;;;5053209;28;20447;-68
2022/11/18 07:21:06;;;;;;;1999.90;999.90;;;9.80;99.90;;;;;;5053800;28;20436;-67
2022/11/18 07:23:32;;;;;;;1999.90;999.90;;;9.80;99.90;;;;;;5051658;28;20456;-67
2022/11/18 07:25:58;;;;;;;1999.90;999.90;;;9.70;99.90;;;;;;5052404;28;20428;-67
2022/11/18 07:28:25;;;;;;;1999.90;999.90;;;9.70;99.90;;;;;;5051890;28;20429;-67
2022/11/18 07:30:50;;;;;;;1999.90;999.90;;;9.70;99.90;;;;;;5052142;28;20198;-67
2022/11/18 07:33:16;;;;;;;1999.90;999.90;;;9.60;99.90;;;;;;5053206;28;20417;-66
2022/11/18 07:35:41;;;;;;;1999.90;999.90;;;9.60;99.90;;;;;;5052041;28;20218;-66
2022/11/18 07:38:08;;;;;;;1999.90;999.90;;;9.50;99.90;;;;;;5053279;28;20209;-67
2022/11/18 07:40:33;;;;;;;1999.90;999.90;;;9.50;99.90;;;;;;5052171;28;20620;-66
2022/11/18 07:42:59;;;;;;;1999.90;999.90;;;9.50;99.90;;;;;;5052927;28;20449;-67
2022/11/18 07:45:24;;;;;;;1999.90;999.90;;;9.60;99.90;;;;;;5051736;28;20221;-67
2022/11/18 07:47:50;;;;;;;1999.90;999.90;;;9.60;99.90;;;;;;5053087;28;20168;-67
2022/11/18 07:50:17;;;;;;;1999.90;999.90;;;9.60;99.90;;;;;;5053560;28;20156;-66
2022/11/18 07:52:43;;;;;;;1999.90;999.90;;;9.60;99.90;;;;;;5047582;28;20171;-66
2022/11/18 07:55:08;;;;;;;1999.90;999.90;;;9.60;99.90;;;;;;5040222;28;20428;-67
2022/11/18 07:57:34;;;;;;;1999.90;999.90;;;9.60;99.90;;;;;;5039407;28;20170;-66
2022/11/18 08:00:00;;;;;;;1999.90;999.90;;;9.60;99.90;;;;;;5040153;28;20719;-67
2022/11/18 08:02:25;;;;;;;1999.90;999.90;;;9.60;99.90;;;;;;5038813;28;20178;-67
2022/11/18 08:04:51;;;;;;;1999.90;999.90;;;9.70;99.90;;;;;;5038207;28;20221;-67
2022/11/18 08:07:17;;;;;;;1999.90;999.90;;;9.70;99.90;;;;;;5039328;28;20186;-66
2022/11/18 08:09:42;;;;;;;1999.90;999.90;;;9.80;99.90;;;;;;5039436;28;20189;-67
2022/11/18 08:12:08;;;;;;;1999.90;999.90;;;9.70;99.90;;;;;;5037340;28;20177;-66
2022/11/18 08:14:33;;;;;;;1999.90;999.90;;;9.70;99.90;;;;;;5033746;28;20287;-67
2022/11/18 08:16:59;;;;;;;1999.90;999.90;;;9.70;99.90;;;;;;5036478;28;20219;-67
2022/11/18 08:19:24;;;;;;;1999.90;999.90;;;9.80;99.90;;;;;;5038626;28;20173;-67
2022/11/18 08:21:50;;;;;;;1999.90;999.90;;;10.00;99.90;;;;;;5038997;28;20176;-66
2022/11/18 08:24:15;;;;;;;1999.90;999.90;;;10.10;99.90;;;;;;5039053;28;20237;-67
2022/11/18 08:26:41;;;;;;;1999.90;999.90;;;10.10;99.90;;;;;;5038485;28;20248;-66
2022/11/18 08:29:07;;;;;;;1999.90;999.90;;;10.10;99.90;;;;;;5038287;28;20696;-66
2022/11/18 08:31:32;;;;;;;1999.90;999.90;;;10.10;99.90;;;;;;5033452;28;20633;-66
2022/11/18 08:34:00;;;;;;;1999.90;999.90;;;10.10;99.90;;;;;;5033400;28;20209;-67
2022/11/18 08:36:28;;;;;;;1999.90;999.90;;;10.20;99.90;;;;;;5033002;28;20206;-67
2022/11/18 08:38:55;;;;;;;1999.90;999.90;;;10.30;99.90;;;;;;5033060;28;20493;-66
2022/11/18 08:41:39;;;;;;;1999.90;999.90;;;10.20;99.90;;;;;;5033201;28;20816;-66
2022/11/18 08:44:06;;;;;;;1999.90;999.90;;;10.20;99.90;;;;;;5033085;28;20502;-67
2022/11/18 08:46:32;;;;;;;1999.90;999.90;;;10.20;99.90;;;;;;5032491;28;20457;-66
2022/11/18 08:48:58;;;;;;;1999.90;999.90;;;10.40;99.90;;;;;;5032896;28;20903;-66
2022/11/18 08:51:24;;;;;;;1999.90;999.90;;;10.40;99.90;;;;;;5032955;28;20241;-67
2022/11/18 08:53:50;;;;;;;1999.90;999.90;;;10.40;99.90;;;;;;5032869;28;20919;-66
2022/11/18 08:56:18;;;;;;;1999.90;999.90;;;10.40;99.90;;;;;;5032697;28;20572;-66
2022/11/18 08:58:44;;;;;;;1999.90;999.90;;;10.40;99.90;;;;;;5042558;28;20171;-67
2022/11/18 09:01:09;;;;;;;1999.90;999.90;;;10.40;99.90;;;;;;5048054;28;20457;-67
2022/11/18 09:03:35;;;;;;;1999.90;999.90;;;10.50;99.90;;;;;;5048843;28;20487;-67
2022/11/18 09:06:13;;;;;;;1999.90;999.90;;;10.50;99.90;;;;;;5050637;28;20415;-67
2022/11/18 09:08:38;;;;;;;1999.90;999.90;;;10.50;99.90;;;;;;5039099;28;20422;-66
2022/11/18 09:11:19;;;;;;;1999.90;999.90;;;10.60;99.90;;;;;;5036717;28;20417;-67
2022/11/18 09:13:45;;;;;;;1999.90;999.90;;;10.50;99.90;;;;;;5036723;28;20186;-67
2022/11/18 09:16:11;;;;;;;1999.90;999.90;;;10.60;99.90;;;;;;5034366;28;20540;-66
2022/11/18 09:18:37;;;;;;;1999.90;999.90;;;10.70;99.90;;;;;;5032369;28;20496;-66
2022/11/18 09:21:05;;;;;;;1999.90;999.90;;;10.80;99.90;;;;;;5032400;28;20175;-67
2022/11/18 09:23:32;;;;;;;1999.90;999.90;;;10.90;99.90;;;;;;5035011;28;20245;-67
2022/11/18 09:26:06;;;;;;;1999.90;999.90;;;10.90;99.90;;;;;;5036671;28;21020;-67
2022/11/18 09:28:32;;;;;;;1999.90;999.90;;;10.90;99.90;;;;;;5032127;28;20405;-67
2022/11/18 09:31:03;;;;;;;1999.90;999.90;;;11.00;99.90;;;;;;5032382;28;20408;-66
2022/11/18 09:33:29;;;;;;;1999.90;999.90;;;11.10;99.90;;;;;;5035414;28;20865;-66
2022/11/18 09:35:54;;;;;;;1999.90;999.90;;;11.10;99.90;;;;;;5032694;28;20541;-67
2022/11/18 09:38:20;;;;;;;1999.90;999.90;;;11.10;99.90;;;;;;5037576;28;20179;-67
2022/11/18 09:40:57;;;;;;;1999.90;999.90;;;11.20;99.90;;;;;;5037975;28;20663;-66
2022/11/18 09:43:38;;;;;;;1999.90;999.90;;;11.20;99.90;;;;;;5042192;28;20203;-66
2022/11/18 09:46:18;;;;;;;1999.90;999.90;;;11.20;99.90;;;;;;5050499;28;20441;-67
2022/11/18 09:51:37;;;;;;;1999.90;999.90;;;11.50;99.90;;;;;;5051618;28;20420;-66
2022/11/18 09:54:03;;;;;;;1999.90;999.90;;;11.50;99.90;;;;;;5040805;28;20427;-66
2022/11/18 09:56:29;;;;;;;1999.90;999.90;;;11.60;99.90;;;;;;5042658;28;20466;-68
2022/11/18 09:58:55;;;;;;;1999.90;999.90;;;11.70;99.90;;;;;;5041196;28;20175;-67
2022/11/18 10:01:21;;;;;;;1999.90;999.90;;;11.70;99.90;;;;;;5043600;28;20175;-67
2022/11/18 10:03:47;;;;;;;1999.90;999.90;;;11.80;99.90;;;;;;5043703;28;20947;-67
2022/11/18 10:06:22;;;;;;;1999.90;999.90;;;11.80;99.90;;;;;;5043515;28;20194;-67
2022/11/18 10:09:04;;;;;;;1999.90;999.90;;;11.90;99.90;;;;;;5044110;28;20159;-71
2022/11/18 10:11:58;;;;;;;1999.90;999.90;;;12.00;99.90;;;;;;5040904;28;20407;-68
2022/11/18 10:14:50;;;;;;;1999.90;999.90;;;12.00;99.90;;;;;;5032518;28;21045;-72
2022/11/18 10:17:43;;;;;;;1999.90;999.90;;;12.20;99.90;;;;;;5042415;28;20500;-71
2022/11/18 10:20:27;;;;;;;1999.90;999.90;;;12.30;99.90;;;;;;5040705;28;20434;-72
2022/11/18 10:23:28;;;;;;;1999.90;999.90;;;12.40;99.90;;;;;;5045562;28;20497;-70
2022/11/18 10:25:54;;;;;;;1999.90;999.90;;;12.60;99.90;;;;;;5003702;28;20431;-66
2022/11/18 10:28:23;;;;;;;1999.90;999.90;;;12.60;99.90;;;;;;5030269;28;20395;-67
2022/11/18 10:30:49;;;;;;;1999.90;999.90;;;12.60;99.90;;;;;;5030072;28;20782;-67
2022/11/18 10:33:27;;;;;;;1999.90;999.90;;;12.70;99.90;;;;;;5030466;28;20412;-67
2022/11/18 10:36:29;;;;;;;1999.90;999.90;;;12.70;99.90;;;;;;5030319;28;20269;-67
2022/11/18 10:39:09;;;;;;;1999.90;999.90;;;12.90;99.90;;;;;;5030187;28;20776;-67
2022/11/18 10:41:43;;;;;;;1999.90;999.90;;;13.00;99.90;;;;;;5030715;28;20407;-66
2022/11/18 10:44:32;;;;;;;1999.90;999.90;;;13.00;99.90;;;;;;5030743;28;20455;-67
2022/11/18 10:47:26;;;;;;;1999.90;999.90;;;13.10;99.90;;;;;;5030073;28;20426;-67
2022/11/18 10:49:54;;;;;;;1999.90;999.90;;;13.10;99.90;;;;;;5030512;28;20770;-67
2022/11/18 10:52:20;;;;;;;1999.90;999.90;;;13.00;99.90;;;;;;5030759;28;20395;-67
2022/11/18 10:55:09;;;;;;;1999.90;999.90;;;12.80;99.90;;;;;;5030814;28;20429;-67
2022/11/18 10:57:38;;;;;;;1999.90;999.90;;;12.60;99.90;;;;;;5034419;28;20411;-67
2022/11/18 11:00:05;;;;;;;1999.90;999.90;;;12.40;99.90;;;;;;5033859;28;20494;-67
2022/11/18 11:02:33;;;;;;;1999.90;999.90;;;12.30;99.90;;;;;;5034031;28;20493;-67
2022/11/18 11:05:19;;;;;;;1999.90;999.90;;;12.30;99.90;;;;;;5035418;28;20752;-67
2022/11/18 11:07:44;;;;;;;1999.90;999.90;;;12.40;99.90;;;;;;5033817;28;20458;-67
2022/11/18 11:10:11;;;;;;;1999.90;999.90;;;12.50;99.90;;;;;;5036612;28;20405;-67
2022/11/18 11:12:46;;;;;;;1999.90;999.90;;;13.00;99.90;;;;;;5038945;28;20176;-67
2022/11/18 11:15:32;;;;;;;1999.90;999.90;;;13.60;99.90;;;;;;5037779;28;21049;-67
2022/11/18 11:21:11;;;;;;;1999.90;999.90;;;14.60;99.90;;;;;;5038122;28;20406;-67
2022/11/18 11:23:37;;;;;;;1999.90;999.90;;;15.00;99.90;;;;;;5039667;28;20450;-68
2022/11/18 11:26:13;;;;;;;1999.90;999.90;;;15.20;99.90;;;;;;5038949;28;21021;-68
2022/11/18 11:28:52;;;;;;;1999.90;999.90;;;15.60;99.90;;;;;;5036485;28;20196;-67
2022/11/18 11:31:43;;;;;;;1999.90;999.90;;;16.40;99.90;;;;;;5033400;28;20392;-67
2022/11/18 11:34:21;;;;;;;1999.90;999.90;;;16.90;99.90;;;;;;5033995;28;20400;-67
2022/11/18 11:36:55;;;;;;;1999.90;999.90;;;17.70;99.90;;;;;;5033662;28;20520;-67
2022/11/18 11:39:29;;;;;;;1999.90;999.90;;;17.70;99.90;;;;;;5033317;28;20812;-67
2022/11/18 11:42:16;;;;;;;1999.90;999.90;;;17.40;99.90;;;;;;5033298;28;20414;-68
2022/11/18 11:44:47;;;;;;;1999.90;999.90;;;16.80;99.90;;;;;;5036215;28;20540;-67
2022/11/18 11:50:52;;;;;;;1999.90;999.90;;;16.20;99.90;;;;;;5049964;28;20401;-66
2022/11/18 11:53:46;;;;;;;1999.90;999.90;;;15.90;99.90;;;;;;5048402;28;20725;-67
2022/11/18 11:56:21;;;;;;;1999.90;999.90;;;15.40;99.90;;;;;;5036681;28;20485;-66
2022/11/18 11:59:24;;;;;;;1999.90;999.90;;;14.80;99.90;;;;;;5037130;28;20412;-67
2022/11/18 12:02:02;;;;;;;1999.90;999.90;;;14.60;99.90;;;;;;5035404;28;20482;-67
2022/11/18 12:04:33;;;;;;;1999.90;999.90;;;14.40;99.90;;;;;;5036866;28;20627;-67
2022/11/18 12:06:59;;;;;;;1999.90;999.90;;;14.40;99.90;;;;;;5035873;28;20781;-66
2022/11/18 12:09:32;;;;;;;1999.90;999.90;;;14.40;99.90;;;;;;5036273;28;20938;-67
2022/11/18 12:11:58;;;;;;;1999.90;999.90;;;14.30;99.90;;;;;;5036884;28;20484;-67
2022/11/18 12:14:29;;;;;;;1999.90;999.90;;;14.10;99.90;;;;;;5036400;28;21051;-67
2022/11/18 12:17:17;;;;;;;1999.90;999.90;;;14.10;99.90;;;;;;5036056;28;20225;-67
2022/11/18 12:19:43;;;;;;;1999.90;999.90;;;14.10;99.90;;;;;;5036186;28;20407;-67
2022/11/18 12:22:09;;;;;;;1999.90;999.90;;;14.00;99.90;;;;;;5034671;28;20414;-67
2022/11/18 12:24:37;;;;;;;1999.90;999.90;;;13.80;99.90;;;;;;5035136;28;20213;-67
2022/11/18 12:27:33;;;;;;;1999.90;999.90;;;13.70;99.90;;;;;;5036629;28;20216;-67
2022/11/18 12:30:02;;;;;;;1999.90;999.90;;;13.70;99.90;;;;;;5036363;28;20421;-67
2022/11/18 12:32:34;;;;;;;1999.90;999.90;;;13.70;99.90;;;;;;5036273;28;20420;-67
2022/11/18 12:35:11;;;;;;;1999.90;999.90;;;13.70;99.90;;;;;;5033024;28;20431;-67
2022/11/18 12:37:37;;;;;;;1999.90;999.90;;;13.70;99.90;;;;;;5032297;28;20438;-66
2022/11/18 12:40:03;;;;;;;1999.90;999.90;;;13.60;99.90;;;;;;5032498;28;20475;-67
2022/11/18 12:45:47;;;;;;;1999.90;999.90;;;13.50;99.90;;;;;;5031707;28;20522;-67
2022/11/18 12:48:22;;;;;;;1999.90;999.90;;;13.50;99.90;;;;;;5032306;28;20407;-67